Time;durP1;ratioP1;P1;durP2;ratioP2;P2;SDS_P1;SDS_P2;PMS_P1;PMS_P2;Temp;Humidity;BMP_temperature;BMP_pressure;BME280_temperature;BME280_humidity;BME280_pressure;Samples;Min_cycle;Max_cycle;Signal;HPM_P1;HPM_P2
2022/03/18 00:02:54;;;;;;;8.35;4.68;;;;;;;1.70;100.00;103571.03;6270510;28;20045;-74
2022/03/18 00:05:57;;;;;;;8.38;4.60;;;;;;;1.67;100.00;103581.28;6271031;28;20049;-76
2022/03/18 00:08:58;;;;;;;8.52;4.63;;;;;;;1.66;100.00;103576.94;6273987;28;20056;-75
2022/03/18 00:12:00;;;;;;;9.00;3.30;;;;;;;1.66;100.00;103584.72;6275178;28;20495;-75
2022/03/18 00:15:01;;;;;;;5.28;3.22;;;;;;;1.67;100.00;103589.06;6275763;28;20041;-75
2022/03/18 00:18:03;;;;;;;10.95;4.15;;;;;;;1.64;100.00;103584.69;6275615;28;20059;-75
2022/03/18 00:21:07;;;;;;;6.90;3.00;;;;;;;1.64;100.00;103587.28;6274893;28;20053;-75
2022/03/18 00:24:08;;;;;;;6.65;3.90;;;;;;;1.66;100.00;103588.19;6275391;28;20111;-75
2022/03/18 00:27:09;;;;;;;7.88;3.90;;;;;;;1.66;100.00;103598.56;6275443;28;20054;-75
2022/03/18 00:30:12;;;;;;;7.20;3.90;;;;;;;1.58;100.00;103594.84;6274950;28;20132;-75
2022/03/18 00:33:13;;;;;;;8.48;4.18;;;;;;;1.56;100.00;103598.25;6274863;28;20045;-75
2022/03/18 00:36:16;;;;;;;5.70;3.30;;;;;;;1.56;100.00;103598.25;6275073;28;20127;-75
2022/03/18 00:39:17;;;;;;;4.32;2.05;;;;;;;1.52;100.00;103595.56;6275306;28;20068;-75
2022/03/18 00:42:18;;;;;;;8.68;3.25;;;;;;;1.44;100.00;103591.84;6274120;28;20060;-75
2022/03/18 00:45:20;;;;;;;6.55;3.22;;;;;;;1.48;100.00;103595.44;6275033;28;20048;-75
2022/03/18 00:52:03;;;;;;;7.30;2.53;;;;;;;1.42;100.00;103598.72;6274196;28;20061;-75
2022/03/18 00:55:05;;;;;;;3.92;2.65;;;;;;;1.40;100.00;103602.97;6274801;28;20045;-75
2022/03/18 00:58:07;;;;;;;11.20;2.88;;;;;;;1.32;100.00;103608.72;6274793;28;20657;-75
2022/03/18 01:01:08;;;;;;;6.03;3.03;;;;;;;1.27;100.00;103613.75;6277698;28;20048;-75
2022/03/18 01:04:09;;;;;;;3.08;2.03;;;;;;;1.24;100.00;103614.56;6289545;28;20044;-75
2022/03/18 01:07:12;;;;;;;2.20;1.42;;;;;;;1.22;100.00;103618.81;6291859;28;20045;-75
2022/03/18 01:10:13;;;;;;;4.25;2.45;;;;;;;1.22;100.00;103612.75;6290485;28;20446;-75
2022/03/18 01:13:15;;;;;;;7.85;3.22;;;;;;;1.21;100.00;103619.66;6298910;28;20052;-75
2022/03/18 01:16:17;;;;;;;6.82;3.05;;;;;;;1.18;100.00;103616.06;6298862;28;20491;-75
2022/03/18 01:19:19;;;;;;;6.82;3.05;;;;;;;1.22;100.00;103618.81;6296762;28;20044;-75
2022/03/18 01:22:21;;;;;;;4.43;2.30;;;;;;;1.18;100.00;103611.81;6289844;28;20201;-75
2022/03/18 01:25:23;;;;;;;4.45;2.22;;;;;;;1.16;100.00;103609.97;6298988;28;20049;-75
2022/03/18 01:28:24;;;;;;;7.32;2.65;;;;;;;1.13;100.00;103613.34;6298688;28;20049;-75
2022/03/18 01:31:26;;;;;;;5.93;2.28;;;;;;;1.08;100.00;103620.09;6298243;28;20137;-75
2022/03/18 01:34:27;;;;;;;4.70;2.40;;;;;;;1.04;100.00;103618.22;6298768;28;20055;-76
2022/03/18 01:37:30;;;;;;;5.82;1.98;;;;;;;0.97;100.00;103618.88;6298983;28;20427;-75
2022/03/18 01:40:32;;;;;;;3.60;1.88;;;;;;;0.95;100.00;103626.59;6297889;28;20052;-75
2022/03/18 01:43:38;;;;;;;6.53;2.15;;;;;;;0.89;100.00;103618.59;6298602;28;20048;-75
2022/03/18 01:46:39;;;;;;;8.27;3.15;;;;;;;0.83;100.00;103621.00;6289045;28;20483;-75
2022/03/18 01:49:41;;;;;;;3.72;2.03;;;;;;;0.86;100.00;103631.44;6273139;28;20057;-75
2022/03/18 01:52:45;;;;;;;4.28;1.48;;;;;;;0.85;100.00;103631.41;6272964;28;20053;-75
2022/03/18 01:55:47;;;;;;;2.60;1.52;;;;;;;0.84;100.00;103634.81;6273195;28;20053;-76
2022/03/18 01:58:48;;;;;;;3.20;1.60;;;;;;;0.79;100.00;103637.25;6273443;28;20056;-75
2022/03/18 02:01:50;;;;;;;3.00;1.75;;;;;;;0.83;100.00;103646.88;6272438;28;20079;-75
2022/03/18 02:04:52;;;;;;;1.73;1.52;;;;;;;0.83;100.00;103648.59;6273258;28;20041;-75
2022/03/18 02:07:55;;;;;;;3.95;1.60;;;;;;;0.76;100.00;103653.56;6272837;28;20049;-75
2022/03/18 02:10:58;;;;;;;3.72;1.80;;;;;;;0.79;100.00;103657.97;6272448;28;20492;-75
2022/03/18 02:13:59;;;;;;;8.60;2.15;;;;;;;0.74;100.00;103662.97;6271493;28;20047;-75
2022/03/18 02:17:02;;;;;;;6.03;2.10;;;;;;;0.68;100.00;103662.78;6271046;28;20504;-75
2022/03/18 02:20:05;;;;;;;3.70;2.05;;;;;;;0.68;100.00;103670.56;6270839;28;20496;-75
2022/03/18 02:23:08;;;;;;;4.53;1.95;;;;;;;0.67;100.00;103663.59;6268118;28;20041;-75
2022/03/18 02:26:14;;;;;;;4.47;2.10;;;;;;;0.65;100.00;103669.56;6271035;28;20052;-75
2022/03/18 02:29:16;;;;;;;3.90;2.08;;;;;;;0.58;100.00;103678.78;6270712;28;20084;-75
2022/03/18 02:32:19;;;;;;;2.30;1.60;;;;;;;0.63;100.00;103681.53;6269329;28;20041;-75
2022/03/18 02:35:20;;;;;;;2.47;1.77;;;;;;;0.58;100.00;103680.50;6270796;28;20048;-75
2022/03/18 02:38:23;;;;;;;1.45;1.33;;;;;;;0.57;100.00;103687.38;6270785;28;20044;-75
2022/03/18 02:41:24;;;;;;;4.40;2.17;;;;;;;0.53;100.00;103685.50;6270020;28;20048;-75
2022/03/18 02:44:26;;;;;;;2.88;1.70;;;;;;;0.49;100.00;103697.47;6270613;28;20037;-75
2022/03/18 02:47:28;;;;;;;3.03;1.50;;;;;;;0.50;100.00;103694.06;6270497;28;20527;-75
2022/03/18 02:50:30;;;;;;;5.25;1.60;;;;;;;0.52;100.00;103693.22;6269885;28;20060;-75
2022/03/18 02:53:32;;;;;;;4.90;1.17;;;;;;;0.52;100.00;103706.16;6270464;28;20049;-75
2022/03/18 02:56:35;;;;;;;3.20;1.75;;;;;;;0.44;100.00;103696.41;6270541;28;20053;-75
2022/03/18 02:59:36;;;;;;;5.03;1.33;;;;;;;0.43;100.00;103707.59;6267282;28;20057;-75
2022/03/18 03:02:38;;;;;;;2.15;1.30;;;;;;;0.45;100.00;103715.41;6285534;28;20059;-76
2022/03/18 03:09:00;;;;;;;2.55;1.42;;;;;;;0.41;100.00;103717.03;6271861;28;20479;-75
2022/03/18 03:12:01;;;;;;;2.42;1.80;;;;;;;0.37;100.00;103728.06;6270890;28;20048;-75
2022/03/18 03:15:03;;;;;;;3.13;1.27;;;;;;;0.37;100.00;103738.41;6271009;28;20045;-75
2022/03/18 03:18:04;;;;;;;3.72;1.58;;;;;;;0.40;100.00;103735.94;6285568;28;20044;-76
2022/03/18 03:21:06;;;;;;;1.10;0.95;;;;;;;0.37;100.00;103737.53;6295622;28;20045;-75
2022/03/18 03:24:09;;;;;;;1.83;1.65;;;;;;;0.37;100.00;103729.78;6296592;28;20074;-76
2022/03/18 03:27:10;;;;;;;7.72;2.17;;;;;;;0.34;100.00;103734.84;6296192;28;20101;-75
2022/03/18 03:30:12;;;;;;;2.72;1.77;;;;;;;0.36;100.00;103746.09;6296183;28;20056;-75
2022/03/18 03:33:14;;;;;;;1.60;1.50;;;;;;;0.36;100.00;103736.63;6291182;28;20047;-76
2022/03/18 03:36:16;;;;;;;3.90;1.65;;;;;;;0.32;100.00;103751.97;6287872;28;20131;-75
2022/03/18 03:39:18;;;;;;;10.88;1.58;;;;;;;0.32;100.00;103754.56;6295733;28;20060;-75
2022/03/18 03:42:20;;;;;;;2.03;1.42;;;;;;;0.29;100.00;103751.88;6292108;28;20045;-75
2022/03/18 03:45:22;;;;;;;7.68;2.03;;;;;;;0.32;100.00;103762.31;6276333;28;20485;-76
2022/03/18 03:48:23;;;;;;;1.77;1.25;;;;;;;0.32;100.00;103762.31;6276135;28;20489;-75
2022/03/18 03:51:25;;;;;;;2.45;1.70;;;;;;;0.29;100.00;103770.00;6275677;28;20057;-75
2022/03/18 03:54:28;;;;;;;5.75;2.03;;;;;;;0.31;100.00;103776.09;6276111;28;20523;-76
2022/03/18 03:57:29;;;;;;;1.63;1.13;;;;;;;0.25;100.00;103775.03;6276170;28;20082;-75
2022/03/18 04:00:31;;;;;;;1.75;1.05;;;;;;;0.24;100.00;103775.00;6275204;28;20060;-75
2022/03/18 04:03:32;;;;;;;3.70;1.98;;;;;;;0.24;100.00;103775.00;6276054;28;20662;-75
2022/03/18 04:06:33;;;;;;;2.92;1.85;;;;;;;0.23;100.00;103779.28;6276021;28;20095;-75
2022/03/18 04:09:36;;;;;;;2.88;1.35;;;;;;;0.22;100.00;103776.63;6275808;28;20413;-75
2022/03/18 04:12:39;;;;;;;6.72;1.85;;;;;;;0.24;100.00;103777.59;6275055;28;20049;-75
2022/03/18 04:15:40;;;;;;;1.27;1.17;;;;;;;0.24;100.00;103781.03;6275692;28;20072;-75
2022/03/18 04:18:41;;;;;;;4.70;2.28;;;;;;;0.20;100.00;103794.69;6275706;28;20059;-75
2022/03/18 04:21:43;;;;;;;2.65;1.80;;;;;;;0.19;100.00;103800.69;6275110;28;20053;-75
2022/03/18 04:24:46;;;;;;;4.57;1.70;;;;;;;0.17;100.00;103807.47;6275529;28;20491;-75
2022/03/18 04:27:47;;;;;;;3.17;1.60;;;;;;;0.12;100.00;103803.84;6275308;28;20044;-75
2022/03/18 04:30:49;;;;;;;1.95;1.40;;;;;;;0.09;100.00;103824.41;6274854;28;20049;-75
2022/03/18 04:33:50;;;;;;;3.53;1.65;;;;;;;0.09;100.00;103832.19;6275126;28;20049;-76
2022/03/18 04:36:51;;;;;;;1.50;1.25;;;;;;;0.07;100.00;103836.38;6275216;28;20075;-75
2022/03/18 04:39:54;;;;;;;1.92;1.40;;;;;;;0.06;100.00;103832.03;6274669;28;20424;-76
2022/03/18 04:42:55;;;;;;;2.17;1.67;;;;;;;0.08;100.00;103825.22;6274933;28;20049;-75
2022/03/18 04:45:57;;;;;;;3.35;2.67;;;;;;;0.08;100.00;103827.81;6274857;28;20048;-76
2022/03/18 04:48:59;;;;;;;3.35;1.75;;;;;;;0.06;100.00;103831.16;6274871;28;20425;-75
2022/03/18 04:52:00;;;;;;;6.82;3.20;;;;;;;0.01;100.00;103835.28;6274261;28;20052;-75
2022/03/18 04:55:03;;;;;;;6.93;3.03;;;;;;;-0.06;100.00;103835.00;6273714;28;20470;-76
2022/03/18 04:58:05;;;;;;;3.92;2.58;;;;;;;-0.03;100.00;103835.13;6274861;28;20053;-75
2022/03/18 05:01:07;;;;;;;4.70;2.85;;;;;;;0.00;100.00;103836.97;6277216;28;20045;-75
2022/03/18 05:04:08;;;;;;;5.65;2.95;;;;;;;-0.03;100.00;103848.06;6282783;28;20492;-75
2022/03/18 05:07:11;;;;;;;5.22;2.45;;;;;;;0.02;100.00;103855.13;6274256;28;20045;-75
2022/03/18 05:10:14;;;;;;;9.40;2.95;;;;;;;0.07;100.00;103864.81;6281383;28;20044;-75
2022/03/18 05:13:16;;;;;;;4.15;2.00;;;;;;;0.05;100.00;103860.44;6290353;28;20052;-75
2022/03/18 05:16:17;;;;;;;4.85;2.67;;;;;;;0.03;100.00;103865.53;6299094;28;20052;-75
2022/03/18 05:19:19;;;;;;;2.60;2.35;;;;;;;-0.01;100.00;103871.38;6299075;28;20056;-75
2022/03/18 05:22:20;;;;;;;9.35;3.03;;;;;;;-0.04;100.00;103872.16;6298235;28;20048;-75
2022/03/18 05:25:23;;;;;;;4.68;2.70;;;;;;;-0.04;100.00;103879.03;6282584;28;20047;-75
2022/03/18 05:28:26;;;;;;;9.27;2.45;;;;;;;-0.09;100.00;103883.09;6298697;28;20496;-75
2022/03/18 05:31:27;;;;;;;5.20;2.33;;;;;;;-0.10;100.00;103877.06;6292199;28;20079;-75
2022/03/18 05:34:29;;;;;;;3.42;2.47;;;;;;;-0.05;100.00;103890.16;6273681;28;20044;-75
2022/03/18 05:37:30;;;;;;;4.88;2.30;;;;;;;-0.04;100.00;103894.53;6273936;28;20045;-75
2022/03/18 05:40:33;;;;;;;6.30;2.65;;;;;;;-0.04;100.00;103898.00;6272888;28;20447;-75
2022/03/18 05:43:36;;;;;;;4.40;2.40;;;;;;;-0.04;100.00;103897.13;6273485;28;20049;-75
2022/03/18 05:46:37;;;;;;;3.50;2.10;;;;;;;-0.07;100.00;103908.22;6273382;28;20044;-75
2022/03/18 05:49:38;;;;;;;6.57;2.80;;;;;;;-0.06;100.00;103909.97;6273525;28;20056;-75
2022/03/18 05:52:40;;;;;;;3.03;2.17;;;;;;;-0.05;100.00;103926.34;6272948;28;20045;-75
2022/03/18 05:59:02;;;;;;;4.35;2.95;;;;;;;-0.07;100.00;103936.66;6273375;28;20099;-75
2022/03/18 06:02:04;;;;;;;5.78;2.25;;;;;;;-0.07;100.00;103941.81;6272603;28;20488;-75
2022/03/18 06:05:06;;;;;;;4.50;2.17;;;;;;;-0.06;100.00;103953.03;6272176;28;20416;-75
2022/03/18 06:14:47;;;;;;;5.07;2.55;;;;;;;0.02;100.00;103961.13;6276778;28;20053;-75
2022/03/18 06:17:49;;;;;;;3.38;2.22;;;;;;;0.07;100.00;103952.72;6281127;28;20048;-75
2022/03/18 06:20:50;;;;;;;2.58;1.60;;;;;;;0.11;100.00;103958.91;6272102;28;20048;-75
2022/03/18 06:23:51;;;;;;;7.57;2.78;;;;;;;0.12;100.00;103966.72;6271859;28;20385;-75
2022/03/18 06:26:55;;;;;;;5.90;3.05;;;;;;;0.16;100.00;103966.03;6271011;28;20041;-75
2022/03/18 06:29:56;;;;;;;2.35;1.50;;;;;;;0.20;100.00;103977.41;6270706;28;20048;-75
2022/03/18 06:32:57;;;;;;;5.72;2.75;;;;;;;0.24;100.00;103975.00;6268583;28;20500;-75
2022/03/18 06:35:59;;;;;;;4.65;2.40;;;;;;;0.29;100.00;103975.19;6272464;28;20048;-75
2022/03/18 06:39:00;;;;;;;9.48;2.70;;;;;;;0.37;100.00;103968.66;6280334;28;20091;-75
2022/03/18 06:42:04;;;;;;;4.43;1.65;;;;;;;0.42;100.00;103974.88;6267607;28;20060;-75
2022/03/18 06:45:06;;;;;;;5.97;1.58;;;;;;;0.43;100.00;103971.47;6271865;28;20077;-75
2022/03/18 06:48:08;;;;;;;2.42;2.00;;;;;;;0.46;100.00;103978.50;6255490;28;20519;-75
2022/03/18 06:51:10;;;;;;;3.08;1.88;;;;;;;0.49;100.00;103983.75;6246530;28;20049;-74
2022/03/18 06:54:12;;;;;;;10.88;5.40;;;;;;;0.56;100.00;103993.56;6247287;28;20049;-75
2022/03/18 06:57:15;;;;;;;8.10;3.03;;;;;;;0.62;100.00;103998.09;6247210;28;20053;-75
2022/03/18 07:00:16;;;;;;;6.72;3.22;;;;;;;0.68;100.00;104000.91;6247095;28;20053;-75
2022/03/18 07:03:18;;;;;;;4.22;2.45;;;;;;;0.74;100.00;103998.59;6247070;28;20394;-75
2022/03/18 07:06:19;;;;;;;3.42;2.67;;;;;;;0.79;100.00;104003.94;6246553;28;20409;-75
2022/03/18 07:09:20;;;;;;;3.50;2.33;;;;;;;0.86;100.00;103999.03;6246960;28;20045;-75
2022/03/18 07:12:23;;;;;;;2.58;1.85;;;;;;;0.94;100.00;104001.94;6246119;28;20528;-74
2022/03/18 07:15:24;;;;;;;4.53;2.45;;;;;;;0.99;100.00;103998.69;6247030;28;20409;-75
2022/03/18 07:18:26;;;;;;;3.08;2.00;;;;;;;1.03;100.00;103991.94;6261393;28;20048;-75
2022/03/18 07:21:27;;;;;;;5.03;3.17;;;;;;;1.01;100.00;103988.44;6269305;28;20056;-74
2022/03/18 07:24:28;;;;;;;4.75;2.53;;;;;;;1.05;100.00;103992.91;6269590;28;20057;-75
2022/03/18 07:27:31;;;;;;;2.63;1.98;;;;;;;1.11;100.00;103993.13;6267101;28;20412;-74
2022/03/18 07:30:32;;;;;;;3.35;2.75;;;;;;;1.23;100.00;103996.19;6265389;28;20048;-74
2022/03/18 07:33:33;;;;;;;4.60;2.50;;;;;;;1.36;100.00;103996.63;6269666;28;20468;-75
2022/03/18 07:36:35;;;;;;;3.63;2.00;;;;;;;1.52;100.00;104010.22;6269736;28;20044;-74
2022/03/18 07:39:36;;;;;;;4.47;1.98;;;;;;;1.58;100.00;104011.25;6270038;28;20056;-75
2022/03/18 07:42:43;;;;;;;5.97;2.90;;;;;;;1.62;100.00;104011.44;6270462;28;20064;-74
2022/03/18 07:45:44;;;;;;;4.15;2.15;;;;;;;1.63;100.00;104013.19;6270318;28;20052;-75
2022/03/18 07:48:46;;;;;;;4.30;3.08;;;;;;;1.73;100.00;104017.91;6256450;28;20060;-75
2022/03/18 07:51:47;;;;;;;5.88;2.58;;;;;;;1.83;100.00;104019.13;6245566;28;20046;-74
2022/03/18 07:54:49;;;;;;;3.13;2.33;;;;;;;1.88;100.00;104038.31;6246810;28;20061;-77
2022/03/18 07:57:52;;;;;;;3.25;2.47;;;;;;;2.04;100.00;104037.13;6248035;28;20053;-78
2022/03/18 08:00:53;;;;;;;11.40;5.25;;;;;;;2.22;100.00;104034.28;6271403;28;20515;-74
2022/03/18 08:03:54;;;;;;;4.28;2.40;;;;;;;2.37;100.00;104028.75;6282485;28;20052;-75
2022/03/18 08:06:56;;;;;;;4.28;2.72;;;;;;;2.35;100.00;104023.50;6283945;28;20052;-75
2022/03/18 08:09:57;;;;;;;5.78;2.63;;;;;;;2.37;100.00;104023.56;6272467;28;20052;-75
2022/03/18 08:13:00;;;;;;;5.07;2.65;;;;;;;2.41;100.00;104031.50;6270056;28;20049;-75
2022/03/18 08:16:01;;;;;;;4.18;2.65;;;;;;;2.56;100.00;104036.31;6272161;28;20049;-76
2022/03/18 08:19:03;;;;;;;5.18;2.83;;;;;;;2.66;100.00;104042.69;6270258;28;20267;-76
2022/03/18 08:22:07;;;;;;;4.65;2.88;;;;;;;2.77;100.00;104047.41;6265751;28;20451;-75
2022/03/18 08:25:09;;;;;;;5.85;3.00;;;;;;;2.90;100.00;104052.97;6270487;28;20128;-76
2022/03/18 08:28:13;;;;;;;4.13;2.90;;;;;;;3.04;100.00;104052.59;6270090;28;20048;-76
2022/03/18 08:31:14;;;;;;;2.28;1.88;;;;;;;3.19;100.00;104057.38;6271341;28;20045;-76
2022/03/18 08:34:15;;;;;;;3.95;2.40;;;;;;;3.30;100.00;104066.38;6275161;28;20045;-76
2022/03/18 08:37:56;;;;;;;13.07;2.90;;;;;;;3.45;100.00;104080.66;6275074;28;20096;-76
2022/03/18 08:40:38;;;;;;;9.98;2.58;;;;;;;3.53;100.00;104081.78;6265023;28;20142;-76
2022/03/18 08:43:41;;;;;;;4.25;2.38;;;;;;;3.62;100.00;104073.38;6272919;28;20059;-76
2022/03/18 08:46:43;;;;;;;5.22;2.92;;;;;;;3.75;100.00;104094.56;6274356;28;20045;-75
2022/03/18 08:49:44;;;;;;;5.85;2.65;;;;;;;3.93;100.00;104095.94;6274344;28;20080;-75
2022/03/18 08:52:46;;;;;;;6.95;3.75;;;;;;;4.00;100.00;104108.28;6274521;28;20060;-76
2022/03/18 08:55:47;;;;;;;3.22;2.20;;;;;;;4.15;100.00;104119.13;6274486;28;20056;-76
2022/03/18 08:58:50;;;;;;;2.67;1.80;;;;;;;4.22;100.00;104120.16;6274689;28;20045;-75
2022/03/18 09:01:51;;;;;;;3.22;1.88;;;;;;;4.25;100.00;104136.75;6273950;28;20049;-76
2022/03/18 09:04:53;;;;;;;7.70;2.40;;;;;;;4.36;100.00;104134.47;6274236;28;20055;-76
2022/03/18 09:07:54;;;;;;;1.88;1.55;;;;;;;4.45;100.00;104132.09;6274565;28;20484;-75
2022/03/18 09:10:55;;;;;;;1.42;1.08;;;;;;;4.62;100.00;104131.66;6273504;28;20045;-75
2022/03/18 09:13:58;;;;;;;3.83;1.92;;;;;;;4.73;100.00;104130.22;6270859;28;20045;-75
2022/03/18 09:16:59;;;;;;;1.25;0.85;;;;;;;4.88;100.00;104134.91;6281409;28;20048;-76
2022/03/18 09:20:01;;;;;;;3.83;1.50;;;;;;;4.90;100.00;104131.50;6249446;28;20498;-75
2022/03/18 09:23:04;;;;;;;2.33;1.10;;;;;;;4.97;100.00;104127.34;6275762;28;20056;-75
2022/03/18 09:26:05;;;;;;;2.42;1.23;;;;;;;4.92;100.00;104124.59;6274176;28;20087;-77
2022/03/18 09:29:08;;;;;;;4.18;1.48;;;;;;;4.96;100.00;104133.41;6287328;28;20056;-76
2022/03/18 09:32:09;;;;;;;1.92;1.33;;;;;;;5.05;100.00;104124.06;6285203;28;20052;-76
2022/03/18 09:35:11;;;;;;;4.80;1.90;;;;;;;5.17;100.00;104133.00;6274051;28;20227;-76
2022/03/18 09:38:13;;;;;;;2.72;1.75;;;;;;;5.15;100.00;104142.53;6273908;28;20052;-76
2022/03/18 09:41:14;;;;;;;3.40;1.55;;;;;;;5.30;100.00;104143.75;6272888;28;20056;-76
2022/03/18 09:44:17;;;;;;;6.78;1.42;;;;;;;5.56;100.00;104157.41;6281200;28;20750;-77
2022/03/18 09:47:21;;;;;;;3.40;1.25;;;;;;;5.90;100.00;104160.75;6290239;28;20048;-76
2022/03/18 09:50:24;;;;;;;3.03;1.40;;;;;;;5.69;100.00;104153.34;6297605;28;20064;-76
2022/03/18 09:53:26;;;;;;;3.05;1.52;;;;;;;5.75;100.00;104152.59;6298581;28;20056;-77
2022/03/18 09:56:27;;;;;;;1.90;1.00;;;;;;;5.93;100.00;104157.34;6298273;28;20408;-77
2022/03/18 09:59:30;;;;;;;2.63;1.33;;;;;;;6.03;100.00;104157.56;6298326;28;20048;-77
2022/03/18 10:02:33;;;;;;;4.40;1.33;;;;;;;6.38;100.00;104170.47;6297385;28;20071;-77
2022/03/18 10:05:35;;;;;;;93.55;14.88;;;;;;;6.67;100.00;104171.00;6297722;28;20044;-76
2022/03/18 10:08:51;;;;;;;1.77;1.20;;;;;;;6.50;100.00;104178.53;6298124;28;20124;-77
2022/03/18 10:11:53;;;;;;;4.80;1.08;;;;;;;6.69;100.00;104174.53;6292047;28;20519;-77
2022/03/18 10:15:05;;;;;;;4.15;1.35;;;;;;;6.84;100.00;104176.53;6282257;28;20065;-77
2022/03/18 10:18:11;;;;;;;2.35;0.90;;;;;;;6.80;100.00;104177.31;6276465;28;20577;-77
2022/03/18 10:21:12;;;;;;;0.73;0.50;;;;;;;6.54;100.00;104176.84;6272269;28;20072;-77
2022/03/18 10:24:14;;;;;;;8.63;0.93;;;;;;;6.54;100.00;104174.22;6288713;28;20056;-77
2022/03/18 10:27:17;;;;;;;2.45;0.73;;;;;;;6.87;100.00;104173.97;6297568;28;20044;-77
2022/03/18 10:30:22;;;;;;;1.95;0.95;;;;;;;7.06;100.00;104169.94;6296753;28;20053;-77
2022/03/18 10:37:04;;;;;;;3.63;1.25;;;;;;;6.94;100.00;104167.09;6296673;28;20143;-76
2022/03/18 10:37:08;;;;;;;2.40;0.75;;;;;;;6.96;100.00;104168.03;6270544;28;20102;-77
2022/03/18 10:40:11;;;;;;;1.83;1.02;;;;;;;7.04;100.00;104174.25;6271903;28;20508;-77
2022/03/18 10:43:12;;;;;;;3.78;0.60;;;;;;;7.21;97.73;104175.41;6266632;28;20184;-78
2022/03/18 10:46:15;;;;;;;113.90;23.30;;;;;;;7.72;98.66;104177.06;6270847;28;20041;-78
2022/03/18 10:49:17;;;;;;;2.65;0.85;;;;;;;7.62;98.11;104175.13;6272379;28;20451;-76
2022/03/18 10:52:23;;;;;;;37.72;5.40;;;;;;;7.75;97.90;104163.09;6268568;28;20507;-75
2022/03/18 10:55:28;;;;;;;42.17;5.53;;;;;;;7.83;99.05;104175.44;6265992;28;20048;-75
2022/03/18 10:58:32;;;;;;;2.25;0.90;;;;;;;7.92;96.52;104176.44;6271920;28;20646;-74
2022/03/18 11:01:35;;;;;;;1.35;0.93;;;;;;;8.03;96.99;104174.81;6265439;28;20052;-74
2022/03/18 11:04:37;;;;;;;4.45;1.23;;;;;;;8.49;92.62;104165.75;6271818;28;20051;-76
2022/03/18 11:07:41;;;;;;;4.55;0.93;;;;;;;8.45;94.04;104174.47;6270358;28;20048;-75
2022/03/18 11:14:10;;;;;;;1.55;0.70;;;;;;;8.55;96.94;104183.31;6269233;28;20072;-75
2022/03/18 11:17:13;;;;;;;5.72;1.77;;;;;;;8.53;96.56;104180.66;6276350;28;20051;-75
2022/03/18 11:20:16;;;;;;;13.80;1.90;;;;;;;8.52;99.63;104178.03;6295922;28;20411;-76
2022/03/18 11:23:19;;;;;;;6.90;1.27;;;;;;;8.85;96.60;104177.47;6296375;28;20449;-75
2022/03/18 11:26:20;;;;;;;3.72;1.63;;;;;;;9.01;94.67;104175.88;6272463;28;20505;-75
2022/03/18 11:29:24;;;;;;;3.63;1.63;;;;;;;9.05;94.97;104173.28;6246745;28;20060;-76
2022/03/18 11:32:29;;;;;;;3.55;1.45;;;;;;;9.41;92.59;104169.19;6246101;28;20055;-75
2022/03/18 11:36:18;;;;;;;6.50;1.65;;;;;;;9.32;96.77;104169.13;6246505;28;20049;-74
2022/03/18 11:39:22;;;;;;;2.70;1.45;;;;;;;9.51;93.93;104162.25;6260829;28;20130;-75
2022/03/18 11:42:23;;;;;;;5.68;1.40;;;;;;;9.64;90.33;104164.06;6278735;28;20051;-75
2022/03/18 11:45:32;;;;;;;4.53;1.42;;;;;;;9.80;91.59;104168.50;6270836;28;20049;-75
2022/03/18 11:48:36;;;;;;;2.00;1.27;;;;;;;9.96;93.46;104165.97;6271149;28;20064;-75
2022/03/18 11:51:40;;;;;;;4.13;1.35;;;;;;;10.26;89.53;104166.09;6270366;28;20045;-75
2022/03/18 11:54:50;;;;;;;2.35;1.38;;;;;;;10.36;89.58;104165.28;6271045;28;20484;-74
2022/03/18 11:57:51;;;;;;;3.25;1.48;;;;;;;10.57;86.38;104171.44;6259816;28;20047;-75
2022/03/18 12:00:53;;;;;;;6.93;1.83;;;;;;;10.70;94.70;104161.81;6273310;28;20423;-76
2022/03/18 12:03:57;;;;;;;4.97;1.73;;;;;;;11.08;90.64;104172.34;6288563;28;20048;-77
2022/03/18 12:07:09;;;;;;;1.65;1.20;;;;;;;11.31;86.46;104165.31;6273679;28;20102;-76
2022/03/18 12:10:11;;;;;;;6.50;1.50;;;;;;;11.38;81.20;104166.19;6273203;28;20051;-76
2022/03/18 12:13:12;;;;;;;2.70;1.02;;;;;;;11.66;84.63;104164.34;6274092;28;20041;-76
2022/03/18 12:16:19;;;;;;;1.70;1.00;;;;;;;11.59;83.90;104157.34;6273980;28;20048;-76
2022/03/18 12:19:21;;;;;;;3.22;1.25;;;;;;;11.88;85.66;104158.16;6267347;28;20048;-76
2022/03/18 12:22:24;;;;;;;2.53;1.25;;;;;;;11.90;80.42;104152.91;6266973;28;20057;-76
2022/03/18 12:25:26;;;;;;;1.98;1.08;;;;;;;12.08;82.69;104146.63;6275731;28;20097;-76
2022/03/18 12:28:27;;;;;;;2.42;1.13;;;;;;;12.12;83.63;104145.72;6275221;28;20510;-76
2022/03/18 12:31:29;;;;;;;1.98;1.10;;;;;;;12.18;82.33;104141.31;6271950;28;20049;-76
2022/03/18 12:34:32;;;;;;;4.03;1.23;;;;;;;12.16;80.88;104140.44;6290749;28;20401;-76
2022/03/18 12:37:35;;;;;;;5.00;1.20;;;;;;;12.50;83.23;104147.28;6273407;28;20052;-76
2022/03/18 12:40:38;;;;;;;1.17;1.08;;;;;;;12.69;81.67;104139.22;6274332;28;20049;-75
2022/03/18 12:43:44;;;;;;;3.13;1.50;;;;;;;12.64;74.69;104138.38;6274122;28;20045;-75
2022/03/18 12:46:45;;;;;;;5.63;1.50;;;;;;;12.51;78.24;104136.72;6275101;28;20053;-76
2022/03/18 12:49:48;;;;;;;2.10;1.08;;;;;;;12.80;77.80;104132.97;6272733;28;20052;-79
2022/03/18 12:52:50;;;;;;;2.78;2.03;;;;;;;13.05;78.53;104133.63;6271050;28;20170;-76
2022/03/18 12:55:53;;;;;;;2.92;1.20;;;;;;;13.10;78.46;104134.47;6275282;28;20052;-77
2022/03/18 12:58:54;;;;;;;6.82;1.65;;;;;;;13.37;75.42;104131.56;6273404;28;20045;-76
2022/03/18 13:01:57;;;;;;;2.95;1.48;;;;;;;13.16;72.85;104132.63;6271974;28;20049;-76
2022/03/18 13:05:00;;;;;;;1.63;0.93;;;;;;;13.38;72.50;104133.31;6275608;28;20049;-75
2022/03/18 13:08:06;;;;;;;1.92;1.30;;;;;;;13.27;72.29;104129.06;6269397;28;20219;-76
2022/03/18 13:11:08;;;;;;;4.57;1.30;;;;;;;13.21;73.52;104138.72;6264796;28;20044;-75
2022/03/18 13:14:10;;;;;;;2.75;1.48;;;;;;;13.32;73.93;104138.69;6275810;28;20040;-76
2022/03/18 13:17:21;;;;;;;1.25;0.80;;;;;;;13.61;75.68;104142.75;6273974;28;20041;-75
2022/03/18 13:20:26;;;;;;;1.75;1.27;;;;;;;13.44;72.37;104145.56;6273418;28;20045;-77
2022/03/18 13:23:28;;;;;;;1.70;1.13;;;;;;;13.71;76.02;104142.63;6274319;28;20052;-76
2022/03/18 13:26:30;;;;;;;1.58;1.00;;;;;;;13.87;72.70;104139.81;6282200;28;20044;-76
2022/03/18 13:32:53;;;;;;;1.40;0.82;;;;;;;13.73;68.46;104123.25;6252800;28;20136;-75
2022/03/18 13:35:57;;;;;;;3.42;0.93;;;;;;;13.83;69.18;104114.28;6272853;28;20060;-75
2022/03/18 13:39:00;;;;;;;1.33;1.00;;;;;;;14.18;71.51;104111.16;6269495;28;20128;-74
2022/03/18 13:42:02;;;;;;;4.80;1.00;;;;;;;13.92;66.85;104104.47;6268515;28;20077;-74
2022/03/18 13:45:04;;;;;;;1.48;0.93;;;;;;;13.82;69.89;104104.63;6270086;28;20052;-75
2022/03/18 13:48:06;;;;;;;1.95;1.30;;;;;;;13.97;71.89;104117.63;6271151;28;20048;-75
2022/03/18 13:51:12;;;;;;;4.47;2.53;;;;;;;14.14;71.57;104115.63;6272061;28;20045;-75
2022/03/18 13:54:16;;;;;;;1.83;1.00;;;;;;;14.13;70.95;104107.72;6273372;28;20049;-75
2022/03/18 13:57:17;;;;;;;6.75;3.67;;;;;;;14.07;73.25;104121.00;6273331;28;20049;-75
2022/03/18 14:00:25;;;;;;;9.10;4.90;;;;;;;14.30;72.32;104126.84;6272474;28;20408;-75
2022/03/18 14:03:31;;;;;;;3.92;1.63;;;;;;;14.53;71.23;104129.16;6273135;28;20053;-75
2022/03/18 14:06:56;;;;;;;12.48;2.47;;;;;;;14.58;69.08;104132.66;6272988;28;20049;-74
2022/03/18 14:09:59;;;;;;;11.18;4.55;;;;;;;14.49;66.63;104130.16;6273030;28;20416;-75
2022/03/18 14:13:01;;;;;;;2.08;1.48;;;;;;;14.60;69.26;104133.47;6272497;28;20056;-74
2022/03/18 14:16:02;;;;;;;6.47;3.35;;;;;;;14.61;70.53;104129.94;6273034;28;20079;-74
2022/03/18 14:19:04;;;;;;;8.90;3.53;;;;;;;14.42;67.11;104131.09;6272740;28;20049;-74
2022/03/18 14:22:07;;;;;;;6.05;2.33;;;;;;;14.09;69.65;104129.81;6272273;28;20056;-74
2022/03/18 14:25:10;;;;;;;5.43;2.35;;;;;;;13.68;72.32;104131.22;6272738;28;20056;-74
2022/03/18 14:28:17;;;;;;;5.65;2.60;;;;;;;13.78;73.81;104124.06;6271590;28;20135;-75
2022/03/18 14:31:18;;;;;;;2.88;1.80;;;;;;;14.14;69.14;104127.97;6271914;28;20412;-74
2022/03/18 14:34:19;;;;;;;12.43;3.50;;;;;;;14.44;68.06;104123.97;6272672;28;20052;-75